ACY weather

Atlantic City International Airport
Atlantic City, New Jersey, United States

Public forecast

Using degrees Fahrenheit for public forecast. Weather courtesy of forecast.io.

Current aviation weather report (METAR) for Atlantic City International Airport

Retrieved 2019/11/15 07:42 UTC (0 seconds ago):

KACY 150742Z 32003KT 3SM -RA BR BKN015 BKN025 OVC030 04/02 A3027 RMK AO2 RAB02 P0002 T00390017

Aviation forecast (TAF) for Atlantic City International Airport

Retrieved 2019/11/15 06:22 UTC (42 minutes ago):

TAF KACY 150520Z 1506/1606 VRB02KT P6SM OVC040 FM151400 32007KT P6SM BKN200 FM151800 30007KT P6SM SCT250 FM160200 34009KT P6SM SCT250